sensor_id;sensor_type;location;lat;lon;timestamp;P1;durP1;ratioP1;P2;durP2;ratioP2
19161;SDS011;9713;48.140;11.530;2024-03-06T00:00:06;30.97;;;16.93;;
19161;SDS011;9713;48.140;11.530;2024-03-06T00:03:50;29.90;;;17.47;;
19161;SDS011;9713;48.140;11.530;2024-03-06T00:07:33;30.37;;;17.17;;
19161;SDS011;9713;48.140;11.530;2024-03-06T00:11:16;32.33;;;17.97;;
19161;SDS011;9713;48.140;11.530;2024-03-06T00:15:00;30.87;;;17.70;;
19161;SDS011;9713;48.140;11.530;2024-03-06T00:18:44;31.67;;;17.63;;
19161;SDS011;9713;48.140;11.530;2024-03-06T00:22:27;29.53;;;16.47;;
19161;SDS011;9713;48.140;11.530;2024-03-06T00:26:10;30.73;;;17.63;;
19161;SDS011;9713;48.140;11.530;2024-03-06T00:29:53;32.43;;;18.37;;
19161;SDS011;9713;48.140;11.530;2024-03-06T00:33:37;36.30;;;19.50;;
19161;SDS011;9713;48.140;11.530;2024-03-06T00:37:21;32.57;;;18.63;;
19161;SDS011;9713;48.140;11.530;2024-03-06T00:41:04;35.83;;;19.27;;
19161;SDS011;9713;48.140;11.530;2024-03-06T00:44:47;31.30;;;17.80;;
19161;SDS011;9713;48.140;11.530;2024-03-06T00:48:29;29.50;;;16.57;;
19161;SDS011;9713;48.140;11.530;2024-03-06T00:52:14;27.07;;;15.70;;
19161;SDS011;9713;48.140;11.530;2024-03-06T00:55:57;31.47;;;17.70;;
19161;SDS011;9713;48.140;11.530;2024-03-06T00:59:42;30.73;;;17.17;;
19161;SDS011;9713;48.140;11.530;2024-03-06T01:03:25;33.90;;;18.50;;
19161;SDS011;9713;48.140;11.530;2024-03-06T01:07:09;34.20;;;18.00;;
19161;SDS011;9713;48.140;11.530;2024-03-06T01:10:53;32.53;;;17.77;;
19161;SDS011;9713;48.140;11.530;2024-03-06T01:14:36;30.33;;;17.23;;
19161;SDS011;9713;48.140;11.530;2024-03-06T01:18:21;30.13;;;17.10;;
19161;SDS011;9713;48.140;11.530;2024-03-06T01:22:04;29.90;;;16.60;;
19161;SDS011;9713;48.140;11.530;2024-03-06T01:25:47;27.30;;;16.07;;
19161;SDS011;9713;48.140;11.530;2024-03-06T01:29:31;29.37;;;16.70;;
19161;SDS011;9713;48.140;11.530;2024-03-06T01:33:15;28.83;;;16.47;;
19161;SDS011;9713;48.140;11.530;2024-03-06T01:36:58;29.97;;;16.90;;
19161;SDS011;9713;48.140;11.530;2024-03-06T01:40:42;31.30;;;16.93;;
19161;SDS011;9713;48.140;11.530;2024-03-06T01:44:26;32.27;;;18.03;;
19161;SDS011;9713;48.140;11.530;2024-03-06T01:48:10;31.60;;;17.37;;
19161;SDS011;9713;48.140;11.530;2024-03-06T01:51:54;31.60;;;17.63;;
19161;SDS011;9713;48.140;11.530;2024-03-06T01:55:38;33.93;;;18.80;;
19161;SDS011;9713;48.140;11.530;2024-03-06T01:59:21;35.10;;;18.87;;
19161;SDS011;9713;48.140;11.530;2024-03-06T02:03:18;35.50;;;18.53;;
19161;SDS011;9713;48.140;11.530;2024-03-06T02:07:01;37.63;;;20.30;;
19161;SDS011;9713;48.140;11.530;2024-03-06T02:10:45;36.23;;;19.10;;
19161;SDS011;9713;48.140;11.530;2024-03-06T02:14:28;34.03;;;18.30;;
19161;SDS011;9713;48.140;11.530;2024-03-06T02:18:11;33.27;;;18.53;;
19161;SDS011;9713;48.140;11.530;2024-03-06T02:21:56;37.07;;;19.13;;
19161;SDS011;9713;48.140;11.530;2024-03-06T02:25:39;32.80;;;18.00;;
19161;SDS011;9713;48.140;11.530;2024-03-06T02:29:23;30.67;;;17.87;;
19161;SDS011;9713;48.140;11.530;2024-03-06T02:33:06;35.20;;;18.80;;
19161;SDS011;9713;48.140;11.530;2024-03-06T02:36:50;34.63;;;19.03;;
19161;SDS011;9713;48.140;11.530;2024-03-06T02:40:34;36.07;;;19.23;;
19161;SDS011;9713;48.140;11.530;2024-03-06T02:44:20;34.77;;;18.00;;
19161;SDS011;9713;48.140;11.530;2024-03-06T02:48:03;34.70;;;18.20;;
19161;SDS011;9713;48.140;11.530;2024-03-06T02:51:47;37.60;;;19.27;;
19161;SDS011;9713;48.140;11.530;2024-03-06T02:55:30;33.43;;;18.07;;
19161;SDS011;9713;48.140;11.530;2024-03-06T02:59:14;32.97;;;18.00;;
19161;SDS011;9713;48.140;11.530;2024-03-06T03:02:57;34.73;;;18.17;;
19161;SDS011;9713;48.140;11.530;2024-03-06T03:06:40;30.87;;;16.43;;
19161;SDS011;9713;48.140;11.530;2024-03-06T03:10:23;7.00;;;4.60;;
19161;SDS011;9713;48.140;11.530;2024-03-06T03:14:07;5.13;;;3.37;;
19161;SDS011;9713;48.140;11.530;2024-03-06T03:17:51;3.73;;;2.63;;
19161;SDS011;9713;48.140;11.530;2024-03-06T03:21:34;3.50;;;2.50;;
19161;SDS011;9713;48.140;11.530;2024-03-06T03:25:17;5.23;;;2.50;;
19161;SDS011;9713;48.140;11.530;2024-03-06T03:29:03;3.67;;;2.53;;
19161;SDS011;9713;48.140;11.530;2024-03-06T03:32:46;5.20;;;2.90;;
19161;SDS011;9713;48.140;11.530;2024-03-06T03:36:31;3.47;;;2.60;;
19161;SDS011;9713;48.140;11.530;2024-03-06T03:40:15;2.87;;;2.20;;
19161;SDS011;9713;48.140;11.530;2024-03-06T03:43:58;3.20;;;2.37;;
19161;SDS011;9713;48.140;11.530;2024-03-06T03:47:41;3.83;;;2.40;;
19161;SDS011;9713;48.140;11.530;2024-03-06T03:51:24;3.40;;;2.30;;
19161;SDS011;9713;48.140;11.530;2024-03-06T03:55:09;4.23;;;2.50;;
19161;SDS011;9713;48.140;11.530;2024-03-06T03:58:52;3.47;;;2.50;;
19161;SDS011;9713;48.140;11.530;2024-03-06T04:02:36;3.63;;;2.50;;
19161;SDS011;9713;48.140;11.530;2024-03-06T04:06:19;3.97;;;2.40;;
19161;SDS011;9713;48.140;11.530;2024-03-06T04:10:02;3.57;;;2.60;;
19161;SDS011;9713;48.140;11.530;2024-03-06T04:13:47;4.53;;;2.73;;
19161;SDS011;9713;48.140;11.530;2024-03-06T04:17:30;3.43;;;2.40;;
19161;SDS011;9713;48.140;11.530;2024-03-06T04:21:13;3.20;;;2.50;;
19161;SDS011;9713;48.140;11.530;2024-03-06T04:24:57;4.07;;;2.80;;
19161;SDS011;9713;48.140;11.530;2024-03-06T04:28:40;4.80;;;2.70;;
19161;SDS011;9713;48.140;11.530;2024-03-06T04:32:25;3.53;;;2.43;;
19161;SDS011;9713;48.140;11.530;2024-03-06T04:36:08;3.83;;;2.67;;
19161;SDS011;9713;48.140;11.530;2024-03-06T04:39:53;4.03;;;2.90;;
19161;SDS011;9713;48.140;11.530;2024-03-06T04:43:36;4.10;;;2.80;;
19161;SDS011;9713;48.140;11.530;2024-03-06T04:47:19;4.13;;;2.93;;
19161;SDS011;9713;48.140;11.530;2024-03-06T04:51:04;3.97;;;3.03;;
19161;SDS011;9713;48.140;11.530;2024-03-06T04:54:47;3.30;;;2.50;;
19161;SDS011;9713;48.140;11.530;2024-03-06T04:58:30;3.63;;;2.60;;
19161;SDS011;9713;48.140;11.530;2024-03-06T05:02:13;3.70;;;2.77;;
19161;SDS011;9713;48.140;11.530;2024-03-06T05:05:56;4.83;;;3.17;;
19161;SDS011;9713;48.140;11.530;2024-03-06T05:10:01;4.23;;;2.87;;
19161;SDS011;9713;48.140;11.530;2024-03-06T05:14:01;4.97;;;3.10;;
19161;SDS011;9713;48.140;11.530;2024-03-06T05:18:01;4.00;;;2.83;;
19161;SDS011;9713;48.140;11.530;2024-03-06T05:22:02;4.70;;;3.40;;
19161;SDS011;9713;48.140;11.530;2024-03-06T05:26:05;5.47;;;3.00;;
19161;SDS011;9713;48.140;11.530;2024-03-06T05:30:06;4.10;;;2.80;;
19161;SDS011;9713;48.140;11.530;2024-03-06T05:34:07;11.47;;;5.70;;
19161;SDS011;9713;48.140;11.530;2024-03-06T05:38:08;4.00;;;2.83;;
19161;SDS011;9713;48.140;11.530;2024-03-06T05:42:10;3.60;;;2.47;;
19161;SDS011;9713;48.140;11.530;2024-03-06T05:46:11;17.23;;;6.33;;
19161;SDS011;9713;48.140;11.530;2024-03-06T05:50:11;9.07;;;3.70;;
19161;SDS011;9713;48.140;11.530;2024-03-06T05:54:12;3.43;;;2.50;;
19161;SDS011;9713;48.140;11.530;2024-03-06T05:58:14;2.97;;;2.27;;
19161;SDS011;9713;48.140;11.530;2024-03-06T06:02:02;3.97;;;2.73;;
19161;SDS011;9713;48.140;11.530;2024-03-06T06:05:45;4.37;;;2.63;;
19161;SDS011;9713;48.140;11.530;2024-03-06T06:09:28;4.73;;;2.70;;
19161;SDS011;9713;48.140;11.530;2024-03-06T06:13:11;4.50;;;2.80;;
19161;SDS011;9713;48.140;11.530;2024-03-06T06:16:56;4.40;;;3.00;;
19161;SDS011;9713;48.140;11.530;2024-03-06T06:20:40;4.83;;;3.33;;
19161;SDS011;9713;48.140;11.530;2024-03-06T06:24:23;4.30;;;3.20;;
19161;SDS011;9713;48.140;11.530;2024-03-06T06:28:06;5.40;;;3.40;;
19161;SDS011;9713;48.140;11.530;2024-03-06T06:31:52;5.23;;;3.50;;
19161;SDS011;9713;48.140;11.530;2024-03-06T06:35:36;5.60;;;3.77;;
19161;SDS011;9713;48.140;11.530;2024-03-06T06:39:20;4.33;;;3.10;;
19161;SDS011;9713;48.140;11.530;2024-03-06T06:43:03;6.77;;;3.50;;
19161;SDS011;9713;48.140;11.530;2024-03-06T06:46:46;4.67;;;3.37;;
19161;SDS011;9713;48.140;11.530;2024-03-06T06:50:29;5.63;;;3.60;;
19161;SDS011;9713;48.140;11.530;2024-03-06T06:54:16;5.20;;;3.40;;
19161;SDS011;9713;48.140;11.530;2024-03-06T06:57:59;4.93;;;3.53;;
19161;SDS011;9713;48.140;11.530;2024-03-06T07:01:42;4.67;;;3.33;;
19161;SDS011;9713;48.140;11.530;2024-03-06T07:05:25;5.23;;;3.67;;
19161;SDS011;9713;48.140;11.530;2024-03-06T07:09:09;5.13;;;3.50;;
19161;SDS011;9713;48.140;11.530;2024-03-06T07:12:53;5.17;;;3.57;;
19161;SDS011;9713;48.140;11.530;2024-03-06T07:16:41;6.60;;;3.47;;
19161;SDS011;9713;48.140;11.530;2024-03-06T07:20:24;10.20;;;3.50;;
19161;SDS011;9713;48.140;11.530;2024-03-06T07:24:08;5.00;;;3.23;;
19161;SDS011;9713;48.140;11.530;2024-03-06T07:27:51;6.03;;;3.03;;
19161;SDS011;9713;48.140;11.530;2024-03-06T07:31:36;4.27;;;2.97;;
19161;SDS011;9713;48.140;11.530;2024-03-06T07:35:19;4.80;;;3.13;;
19161;SDS011;9713;48.140;11.530;2024-03-06T07:39:02;5.83;;;3.20;;
19161;SDS011;9713;48.140;11.530;2024-03-06T07:42:46;3.47;;;2.53;;
19161;SDS011;9713;48.140;11.530;2024-03-06T07:46:30;4.13;;;2.87;;
19161;SDS011;9713;48.140;11.530;2024-03-06T07:50:14;8.83;;;2.90;;
19161;SDS011;9713;48.140;11.530;2024-03-06T07:54:00;3.73;;;2.60;;
19161;SDS011;9713;48.140;11.530;2024-03-06T07:57:45;4.10;;;2.70;;
19161;SDS011;9713;48.140;11.530;2024-03-06T08:01:28;3.57;;;2.53;;
19161;SDS011;9713;48.140;11.530;2024-03-06T08:05:13;4.90;;;3.37;;
19161;SDS011;9713;48.140;11.530;2024-03-06T08:08:56;4.47;;;2.70;;
19161;SDS011;9713;48.140;11.530;2024-03-06T08:12:44;4.00;;;2.97;;
19161;SDS011;9713;48.140;11.530;2024-03-06T08:16:29;4.83;;;3.00;;
19161;SDS011;9713;48.140;11.530;2024-03-06T08:20:19;3.53;;;2.50;;
19161;SDS011;9713;48.140;11.530;2024-03-06T08:24:02;2.40;;;2.00;;
19161;SDS011;9713;48.140;11.530;2024-03-06T08:27:45;3.20;;;2.37;;
19161;SDS011;9713;48.140;11.530;2024-03-06T08:31:28;4.83;;;2.63;;
19161;SDS011;9713;48.140;11.530;2024-03-06T08:35:12;3.70;;;2.60;;
19161;SDS011;9713;48.140;11.530;2024-03-06T08:39:03;5.07;;;2.60;;
19161;SDS011;9713;48.140;11.530;2024-03-06T08:42:49;3.73;;;2.90;;
19161;SDS011;9713;48.140;11.530;2024-03-06T08:46:32;4.27;;;2.60;;
19161;SDS011;9713;48.140;11.530;2024-03-06T08:50:16;3.10;;;2.40;;
19161;SDS011;9713;48.140;11.530;2024-03-06T08:53:59;3.27;;;2.37;;
19161;SDS011;9713;48.140;11.530;2024-03-06T08:57:45;3.10;;;2.20;;
19161;SDS011;9713;48.140;11.530;2024-03-06T09:01:28;3.20;;;2.50;;
19161;SDS011;9713;48.140;11.530;2024-03-06T09:05:11;2.67;;;2.10;;
19161;SDS011;9713;48.140;11.530;2024-03-06T09:08:55;3.70;;;2.10;;
19161;SDS011;9713;48.140;11.530;2024-03-06T09:12:38;5.10;;;2.33;;
19161;SDS011;9713;48.140;11.530;2024-03-06T09:16:22;4.33;;;2.37;;
19161;SDS011;9713;48.140;11.530;2024-03-06T09:20:15;2.20;;;1.90;;
19161;SDS011;9713;48.140;11.530;2024-03-06T09:24:01;2.67;;;1.97;;
19161;SDS011;9713;48.140;11.530;2024-03-06T09:27:51;3.20;;;2.23;;
19161;SDS011;9713;48.140;11.530;2024-03-06T09:31:35;2.90;;;2.10;;
19161;SDS011;9713;48.140;11.530;2024-03-06T09:35:18;3.37;;;1.93;;
19161;SDS011;9713;48.140;11.530;2024-03-06T09:39:01;3.53;;;2.33;;
19161;SDS011;9713;48.140;11.530;2024-03-06T09:42:46;4.40;;;2.30;;
19161;SDS011;9713;48.140;11.530;2024-03-06T09:46:29;2.70;;;1.90;;
19161;SDS011;9713;48.140;11.530;2024-03-06T09:50:13;4.07;;;1.93;;
19161;SDS011;9713;48.140;11.530;2024-03-06T09:53:59;3.30;;;1.90;;
19161;SDS011;9713;48.140;11.530;2024-03-06T09:57:42;3.83;;;2.00;;
19161;SDS011;9713;48.140;11.530;2024-03-06T10:01:25;2.60;;;2.00;;
19161;SDS011;9713;48.140;11.530;2024-03-06T10:05:21;7.23;;;2.33;;
19161;SDS011;9713;48.140;11.530;2024-03-06T10:09:05;2.50;;;1.90;;
19161;SDS011;9713;48.140;11.530;2024-03-06T10:12:50;5.57;;;2.00;;
19161;SDS011;9713;48.140;11.530;2024-03-06T10:16:33;3.50;;;2.10;;
19161;SDS011;9713;48.140;11.530;2024-03-06T10:20:18;3.63;;;2.40;;
19161;SDS011;9713;48.140;11.530;2024-03-06T10:24:04;3.73;;;2.50;;
19161;SDS011;9713;48.140;11.530;2024-03-06T10:28:02;5.37;;;2.60;;
19161;SDS011;9713;48.140;11.530;2024-03-06T10:31:49;3.73;;;2.00;;
19161;SDS011;9713;48.140;11.530;2024-03-06T10:35:34;4.23;;;2.37;;
19161;SDS011;9713;48.140;11.530;2024-03-06T10:39:19;3.57;;;2.47;;
19161;SDS011;9713;48.140;11.530;2024-03-06T10:43:03;3.87;;;2.63;;
19161;SDS011;9713;48.140;11.530;2024-03-06T10:46:48;2.73;;;2.20;;
19161;SDS011;9713;48.140;11.530;2024-03-06T10:50:34;3.73;;;2.70;;
19161;SDS011;9713;48.140;11.530;2024-03-06T10:54:23;3.03;;;2.40;;
19161;SDS011;9713;48.140;11.530;2024-03-06T10:58:09;3.67;;;2.10;;
19161;SDS011;9713;48.140;11.530;2024-03-06T11:01:52;3.70;;;2.67;;
19161;SDS011;9713;48.140;11.530;2024-03-06T11:05:37;5.43;;;2.83;;
19161;SDS011;9713;48.140;11.530;2024-03-06T11:09:21;4.80;;;2.57;;
19161;SDS011;9713;48.140;11.530;2024-03-06T11:13:08;3.50;;;2.57;;
19161;SDS011;9713;48.140;11.530;2024-03-06T11:16:59;4.40;;;2.80;;
19161;SDS011;9713;48.140;11.530;2024-03-06T11:20:45;5.63;;;3.20;;
19161;SDS011;9713;48.140;11.530;2024-03-06T11:24:33;6.67;;;3.97;;
19161;SDS011;9713;48.140;11.530;2024-03-06T11:28:16;4.57;;;3.00;;
19161;SDS011;9713;48.140;11.530;2024-03-06T11:32:00;5.67;;;3.00;;
19161;SDS011;9713;48.140;11.530;2024-03-06T11:40:00;5.40;;;3.23;;
19161;SDS011;9713;48.140;11.530;2024-03-06T11:43:44;7.17;;;3.80;;
19161;SDS011;9713;48.140;11.530;2024-03-06T11:47:28;8.90;;;4.57;;
19161;SDS011;9713;48.140;11.530;2024-03-06T11:51:11;7.47;;;4.30;;
19161;SDS011;9713;48.140;11.530;2024-03-06T11:54:54;9.07;;;4.90;;
19161;SDS011;9713;48.140;11.530;2024-03-06T11:58:38;7.90;;;4.43;;
19161;SDS011;9713;48.140;11.530;2024-03-06T12:02:21;10.73;;;5.70;;
19161;SDS011;9713;48.140;11.530;2024-03-06T12:06:05;10.00;;;5.30;;
19161;SDS011;9713;48.140;11.530;2024-03-06T12:09:49;10.53;;;5.57;;
19161;SDS011;9713;48.140;11.530;2024-03-06T12:13:33;9.30;;;5.43;;
19161;SDS011;9713;48.140;11.530;2024-03-06T12:17:18;9.17;;;5.50;;
19161;SDS011;9713;48.140;11.530;2024-03-06T12:21:01;8.37;;;5.37;;
19161;SDS011;9713;48.140;11.530;2024-03-06T12:24:45;9.47;;;5.17;;
19161;SDS011;9713;48.140;11.530;2024-03-06T12:28:28;9.33;;;5.20;;
19161;SDS011;9713;48.140;11.530;2024-03-06T12:32:16;9.37;;;4.80;;
19161;SDS011;9713;48.140;11.530;2024-03-06T12:36:03;7.67;;;4.87;;
19161;SDS011;9713;48.140;11.530;2024-03-06T12:39:47;7.23;;;4.43;;
19161;SDS011;9713;48.140;11.530;2024-03-06T12:43:30;7.73;;;4.77;;
19161;SDS011;9713;48.140;11.530;2024-03-06T12:47:16;7.97;;;4.73;;
19161;SDS011;9713;48.140;11.530;2024-03-06T12:50:59;6.77;;;4.50;;
19161;SDS011;9713;48.140;11.530;2024-03-06T12:54:48;9.90;;;5.43;;
19161;SDS011;9713;48.140;11.530;2024-03-06T12:58:31;7.77;;;4.37;;
19161;SDS011;9713;48.140;11.530;2024-03-06T13:02:16;7.60;;;4.57;;
19161;SDS011;9713;48.140;11.530;2024-03-06T13:05:59;8.03;;;4.30;;
19161;SDS011;9713;48.140;11.530;2024-03-06T13:09:43;6.43;;;4.37;;
19161;SDS011;9713;48.140;11.530;2024-03-06T13:13:27;7.77;;;3.90;;
19161;SDS011;9713;48.140;11.530;2024-03-06T13:17:11;6.17;;;4.07;;
19161;SDS011;9713;48.140;11.530;2024-03-06T13:20:54;7.50;;;4.20;;
19161;SDS011;9713;48.140;11.530;2024-03-06T13:24:39;6.83;;;4.27;;
19161;SDS011;9713;48.140;11.530;2024-03-06T13:28:30;6.20;;;4.00;;
19161;SDS011;9713;48.140;11.530;2024-03-06T13:32:14;6.57;;;3.87;;
19161;SDS011;9713;48.140;11.530;2024-03-06T13:35:58;6.00;;;3.90;;
19161;SDS011;9713;48.140;11.530;2024-03-06T13:39:45;6.17;;;3.70;;
19161;SDS011;9713;48.140;11.530;2024-03-06T13:43:30;5.23;;;3.37;;
19161;SDS011;9713;48.140;11.530;2024-03-06T13:47:14;5.03;;;3.30;;
19161;SDS011;9713;48.140;11.530;2024-03-06T13:50:59;5.60;;;3.67;;
19161;SDS011;9713;48.140;11.530;2024-03-06T13:54:42;5.00;;;3.27;;
19161;SDS011;9713;48.140;11.530;2024-03-06T13:58:25;4.37;;;2.90;;
19161;SDS011;9713;48.140;11.530;2024-03-06T14:02:10;4.80;;;3.40;;
19161;SDS011;9713;48.140;11.530;2024-03-06T14:05:53;5.33;;;3.53;;
19161;SDS011;9713;48.140;11.530;2024-03-06T14:09:37;5.27;;;3.27;;
19161;SDS011;9713;48.140;11.530;2024-03-06T14:13:20;5.37;;;3.53;;
19161;SDS011;9713;48.140;11.530;2024-03-06T14:17:03;10.10;;;5.20;;
19161;SDS011;9713;48.140;11.530;2024-03-06T14:20:48;5.57;;;3.40;;
19161;SDS011;9713;48.140;11.530;2024-03-06T14:24:31;6.50;;;3.67;;
19161;SDS011;9713;48.140;11.530;2024-03-06T14:28:14;5.80;;;3.30;;
19161;SDS011;9713;48.140;11.530;2024-03-06T14:31:57;4.57;;;3.17;;
19161;SDS011;9713;48.140;11.530;2024-03-06T14:35:40;5.63;;;3.27;;
19161;SDS011;9713;48.140;11.530;2024-03-06T14:39:24;6.10;;;3.37;;
19161;SDS011;9713;48.140;11.530;2024-03-06T14:43:07;4.83;;;3.20;;
19161;SDS011;9713;48.140;11.530;2024-03-06T14:46:51;5.37;;;3.40;;
19161;SDS011;9713;48.140;11.530;2024-03-06T14:50:34;4.00;;;3.00;;
19161;SDS011;9713;48.140;11.530;2024-03-06T14:54:17;4.67;;;3.00;;
19161;SDS011;9713;48.140;11.530;2024-03-06T14:58:02;5.87;;;3.40;;
19161;SDS011;9713;48.140;11.530;2024-03-06T15:01:45;4.07;;;2.93;;
19161;SDS011;9713;48.140;11.530;2024-03-06T15:05:29;4.10;;;3.13;;
19161;SDS011;9713;48.140;11.530;2024-03-06T15:09:13;4.50;;;3.27;;
19161;SDS011;9713;48.140;11.530;2024-03-06T15:12:57;4.57;;;3.20;;
19161;SDS011;9713;48.140;11.530;2024-03-06T15:16:41;7.40;;;3.27;;
19161;SDS011;9713;48.140;11.530;2024-03-06T15:20:25;4.50;;;3.13;;
19161;SDS011;9713;48.140;11.530;2024-03-06T15:24:10;4.63;;;3.33;;
19161;SDS011;9713;48.140;11.530;2024-03-06T15:27:53;4.27;;;2.93;;
19161;SDS011;9713;48.140;11.530;2024-03-06T15:31:36;4.93;;;3.03;;
19161;SDS011;9713;48.140;11.530;2024-03-06T15:35:21;4.70;;;2.80;;
19161;SDS011;9713;48.140;11.530;2024-03-06T15:39:04;4.57;;;3.10;;
19161;SDS011;9713;48.140;11.530;2024-03-06T15:42:48;4.40;;;2.90;;
19161;SDS011;9713;48.140;11.530;2024-03-06T15:46:33;4.27;;;3.40;;
19161;SDS011;9713;48.140;11.530;2024-03-06T15:50:19;4.03;;;2.90;;
19161;SDS011;9713;48.140;11.530;2024-03-06T15:54:03;5.27;;;3.10;;
19161;SDS011;9713;48.140;11.530;2024-03-06T15:57:46;4.57;;;3.17;;
19161;SDS011;9713;48.140;11.530;2024-03-06T16:01:29;5.40;;;3.07;;
19161;SDS011;9713;48.140;11.530;2024-03-06T16:05:13;4.67;;;3.20;;
19161;SDS011;9713;48.140;11.530;2024-03-06T16:08:57;5.57;;;3.37;;
19161;SDS011;9713;48.140;11.530;2024-03-06T16:12:41;4.77;;;3.10;;
19161;SDS011;9713;48.140;11.530;2024-03-06T16:16:24;6.07;;;3.90;;
19161;SDS011;9713;48.140;11.530;2024-03-06T16:20:07;6.10;;;3.33;;
19161;SDS011;9713;48.140;11.530;2024-03-06T16:23:52;5.97;;;3.60;;
19161;SDS011;9713;48.140;11.530;2024-03-06T16:27:36;5.07;;;3.30;;
19161;SDS011;9713;48.140;11.530;2024-03-06T16:31:19;6.27;;;3.67;;
19161;SDS011;9713;48.140;11.530;2024-03-06T16:35:03;4.93;;;3.13;;
19161;SDS011;9713;48.140;11.530;2024-03-06T16:38:46;5.33;;;3.23;;
19161;SDS011;9713;48.140;11.530;2024-03-06T16:42:30;4.27;;;3.10;;
19161;SDS011;9713;48.140;11.530;2024-03-06T16:46:16;7.40;;;3.80;;
19161;SDS011;9713;48.140;11.530;2024-03-06T16:49:59;7.47;;;4.60;;
19161;SDS011;9713;48.140;11.530;2024-03-06T16:53:42;6.27;;;3.70;;
19161;SDS011;9713;48.140;11.530;2024-03-06T16:57:25;4.57;;;3.07;;
19161;SDS011;9713;48.140;11.530;2024-03-06T17:01:08;5.30;;;3.40;;
19161;SDS011;9713;48.140;11.530;2024-03-06T17:04:53;5.20;;;3.47;;
19161;SDS011;9713;48.140;11.530;2024-03-06T17:08:36;4.70;;;3.57;;
19161;SDS011;9713;48.140;11.530;2024-03-06T17:12:19;5.67;;;3.90;;
19161;SDS011;9713;48.140;11.530;2024-03-06T17:16:02;4.63;;;3.37;;
19161;SDS011;9713;48.140;11.530;2024-03-06T17:19:47;6.23;;;3.77;;
19161;SDS011;9713;48.140;11.530;2024-03-06T17:23:31;5.13;;;3.50;;
19161;SDS011;9713;48.140;11.530;2024-03-06T17:27:15;4.47;;;3.30;;
19161;SDS011;9713;48.140;11.530;2024-03-06T17:30:58;5.33;;;3.20;;
19161;SDS011;9713;48.140;11.530;2024-03-06T17:34:41;4.83;;;3.70;;
19161;SDS011;9713;48.140;11.530;2024-03-06T17:38:24;5.47;;;3.80;;
19161;SDS011;9713;48.140;11.530;2024-03-06T17:42:09;5.83;;;4.00;;
19161;SDS011;9713;48.140;11.530;2024-03-06T17:45:52;5.33;;;4.03;;
19161;SDS011;9713;48.140;11.530;2024-03-06T17:49:36;5.60;;;3.97;;
19161;SDS011;9713;48.140;11.530;2024-03-06T17:53:19;5.47;;;4.03;;
19161;SDS011;9713;48.140;11.530;2024-03-06T17:57:03;5.73;;;3.87;;
19161;SDS011;9713;48.140;11.530;2024-03-06T18:00:48;6.43;;;4.37;;
19161;SDS011;9713;48.140;11.530;2024-03-06T18:04:31;5.80;;;4.20;;
19161;SDS011;9713;48.140;11.530;2024-03-06T18:08:14;5.83;;;4.37;;
19161;SDS011;9713;48.140;11.530;2024-03-06T18:11:57;7.83;;;4.77;;
19161;SDS011;9713;48.140;11.530;2024-03-06T18:15:40;5.87;;;4.53;;
19161;SDS011;9713;48.140;11.530;2024-03-06T18:19:25;6.97;;;5.13;;
19161;SDS011;9713;48.140;11.530;2024-03-06T18:23:08;6.60;;;4.97;;
19161;SDS011;9713;48.140;11.530;2024-03-06T18:26:53;6.97;;;5.30;;
19161;SDS011;9713;48.140;11.530;2024-03-06T18:30:36;9.57;;;5.60;;
19161;SDS011;9713;48.140;11.530;2024-03-06T18:34:19;7.50;;;5.07;;
19161;SDS011;9713;48.140;11.530;2024-03-06T18:38:04;7.23;;;5.27;;
19161;SDS011;9713;48.140;11.530;2024-03-06T18:41:47;8.83;;;5.90;;
19161;SDS011;9713;48.140;11.530;2024-03-06T18:45:30;7.27;;;5.27;;
19161;SDS011;9713;48.140;11.530;2024-03-06T18:49:13;8.63;;;6.20;;
19161;SDS011;9713;48.140;11.530;2024-03-06T18:53:00;7.90;;;5.90;;
19161;SDS011;9713;48.140;11.530;2024-03-06T18:56:45;8.47;;;6.03;;
19161;SDS011;9713;48.140;11.530;2024-03-06T19:00:29;7.87;;;5.93;;
19161;SDS011;9713;48.140;11.530;2024-03-06T19:04:15;9.93;;;6.90;;
19161;SDS011;9713;48.140;11.530;2024-03-06T19:08:00;8.10;;;5.87;;
19161;SDS011;9713;48.140;11.530;2024-03-06T19:11:42;9.00;;;6.43;;
19161;SDS011;9713;48.140;11.530;2024-03-06T19:15:27;10.47;;;6.57;;
19161;SDS011;9713;48.140;11.530;2024-03-06T19:19:10;10.13;;;6.67;;
19161;SDS011;9713;48.140;11.530;2024-03-06T19:22:54;11.30;;;7.53;;
19161;SDS011;9713;48.140;11.530;2024-03-06T19:26:37;13.13;;;8.40;;
19161;SDS011;9713;48.140;11.530;2024-03-06T19:30:22;12.13;;;8.40;;
19161;SDS011;9713;48.140;11.530;2024-03-06T19:34:05;11.33;;;7.87;;
19161;SDS011;9713;48.140;11.530;2024-03-06T19:37:50;12.33;;;7.90;;
19161;SDS011;9713;48.140;11.530;2024-03-06T19:41:33;10.50;;;8.00;;
19161;SDS011;9713;48.140;11.530;2024-03-06T19:45:17;11.30;;;7.83;;
19161;SDS011;9713;48.140;11.530;2024-03-06T19:49:01;11.47;;;7.97;;
19161;SDS011;9713;48.140;11.530;2024-03-06T19:52:45;13.90;;;8.33;;
19161;SDS011;9713;48.140;11.530;2024-03-06T19:56:31;11.10;;;7.50;;
19161;SDS011;9713;48.140;11.530;2024-03-06T20:00:14;10.47;;;7.53;;
19161;SDS011;9713;48.140;11.530;2024-03-06T20:04:02;12.33;;;8.13;;
19161;SDS011;9713;48.140;11.530;2024-03-06T20:07:46;13.60;;;8.53;;
19161;SDS011;9713;48.140;11.530;2024-03-06T20:11:29;13.93;;;9.17;;
19161;SDS011;9713;48.140;11.530;2024-03-06T20:15:13;13.07;;;8.90;;
19161;SDS011;9713;48.140;11.530;2024-03-06T20:18:56;15.40;;;9.20;;
19161;SDS011;9713;48.140;11.530;2024-03-06T20:22:42;12.57;;;8.50;;
19161;SDS011;9713;48.140;11.530;2024-03-06T20:26:25;12.83;;;8.77;;
19161;SDS011;9713;48.140;11.530;2024-03-06T20:30:08;12.10;;;8.57;;
19161;SDS011;9713;48.140;11.530;2024-03-06T20:33:52;12.90;;;8.47;;
19161;SDS011;9713;48.140;11.530;2024-03-06T20:37:36;12.17;;;8.20;;
19161;SDS011;9713;48.140;11.530;2024-03-06T20:41:20;11.10;;;8.20;;
19161;SDS011;9713;48.140;11.530;2024-03-06T20:45:04;11.57;;;8.33;;
19161;SDS011;9713;48.140;11.530;2024-03-06T20:48:51;10.70;;;8.03;;
19161;SDS011;9713;48.140;11.530;2024-03-06T20:52:34;10.40;;;7.80;;
19161;SDS011;9713;48.140;11.530;2024-03-06T20:56:17;13.47;;;8.10;;
19161;SDS011;9713;48.140;11.530;2024-03-06T21:00:02;10.43;;;7.90;;
19161;SDS011;9713;48.140;11.530;2024-03-06T21:03:45;10.53;;;8.17;;
19161;SDS011;9713;48.140;11.530;2024-03-06T21:07:28;10.43;;;8.13;;
19161;SDS011;9713;48.140;11.530;2024-03-06T21:11:13;11.80;;;8.07;;
19161;SDS011;9713;48.140;11.530;2024-03-06T21:14:56;9.87;;;7.37;;
19161;SDS011;9713;48.140;11.530;2024-03-06T21:18:41;10.70;;;7.80;;
19161;SDS011;9713;48.140;11.530;2024-03-06T21:22:24;10.23;;;8.00;;
19161;SDS011;9713;48.140;11.530;2024-03-06T21:26:07;10.87;;;8.47;;
19161;SDS011;9713;48.140;11.530;2024-03-06T21:29:50;10.77;;;8.07;;
19161;SDS011;9713;48.140;11.530;2024-03-06T21:33:33;13.57;;;7.83;;
19161;SDS011;9713;48.140;11.530;2024-03-06T21:37:17;9.97;;;7.73;;
19161;SDS011;9713;48.140;11.530;2024-03-06T21:41:00;10.40;;;8.03;;
19161;SDS011;9713;48.140;11.530;2024-03-06T21:44:44;11.03;;;8.00;;
19161;SDS011;9713;48.140;11.530;2024-03-06T21:48:27;10.80;;;8.07;;
19161;SDS011;9713;48.140;11.530;2024-03-06T21:52:10;10.20;;;7.67;;
19161;SDS011;9713;48.140;11.530;2024-03-06T21:55:55;12.37;;;8.67;;
19161;SDS011;9713;48.140;11.530;2024-03-06T21:59:38;11.60;;;7.90;;
19161;SDS011;9713;48.140;11.530;2024-03-06T22:03:21;11.47;;;7.70;;
19161;SDS011;9713;48.140;11.530;2024-03-06T22:07:05;11.63;;;8.17;;
19161;SDS011;9713;48.140;11.530;2024-03-06T22:10:48;12.27;;;8.50;;
19161;SDS011;9713;48.140;11.530;2024-03-06T22:14:32;11.00;;;8.23;;
19161;SDS011;9713;48.140;11.530;2024-03-06T22:18:15;11.87;;;8.20;;
19161;SDS011;9713;48.140;11.530;2024-03-06T22:21:59;11.07;;;8.30;;
19161;SDS011;9713;48.140;11.530;2024-03-06T22:25:42;11.07;;;8.00;;